createdAt,value
2018-04-23T00:00:14.927Z,20.50
2018-04-23T00:02:41.020Z,16.00
2018-04-23T00:05:07.843Z,15.67
2018-04-23T00:07:33.951Z,16.83
2018-04-23T00:13:06.681Z,17.87
2018-04-23T00:15:32.769Z,17.70
2018-04-23T00:17:58.846Z,15.83
2018-04-23T00:20:25.663Z,15.70
2018-04-23T00:22:51.746Z,16.83
2018-04-23T00:25:17.819Z,21.17
2018-04-23T00:27:43.899Z,17.80
2018-04-23T00:30:09.968Z,21.00
2018-04-23T00:32:36.053Z,21.70
2018-04-23T00:35:02.126Z,16.20
2018-04-23T00:37:28.942Z,22.63
2018-04-23T00:39:55.005Z,27.13
2018-04-23T00:42:21.837Z,18.03
2018-04-23T00:44:48.645Z,18.40
2018-04-23T00:47:14.729Z,19.90
2018-04-23T00:49:40.799Z,17.80
2018-04-23T00:52:06.887Z,19.17
2018-04-23T00:54:32.965Z,17.57
2018-04-23T00:56:59.053Z,16.47
2018-04-23T00:59:25.134Z,17.77
2018-04-23T01:01:51.945Z,21.83
2018-04-23T01:04:18.026Z,16.87
2018-04-23T01:06:44.093Z,18.87
2018-04-23T01:09:10.166Z,19.40
2018-04-23T01:11:36.970Z,18.70
2018-04-23T01:14:03.046Z,18.43
2018-04-23T01:16:29.105Z,18.60
2018-04-23T01:18:55.179Z,17.70
2018-04-23T01:21:21.981Z,16.67
2018-04-23T01:23:48.053Z,15.87
2018-04-23T01:26:14.865Z,16.80
2018-04-23T01:28:41.621Z,19.77
2018-04-23T01:31:08.425Z,18.37
2018-04-23T01:33:34.501Z,16.90
2018-04-23T01:36:01.329Z,16.83
2018-04-23T01:38:28.155Z,18.70
2018-04-23T01:40:54.236Z,18.93
2018-04-23T01:43:20.306Z,20.10
2018-04-23T01:45:46.397Z,20.97
2018-04-23T01:48:12.464Z,18.67
2018-04-23T01:50:38.538Z,21.60
2018-04-23T01:53:04.633Z,21.47
2018-04-23T01:55:31.456Z,20.97
2018-04-23T01:57:57.534Z,20.73
2018-04-23T02:00:23.626Z,20.80
2018-04-23T02:02:50.461Z,24.73
2018-04-23T02:05:17.289Z,21.17
2018-04-23T02:07:43.382Z,19.53
2018-04-23T02:10:09.469Z,18.80
2018-04-23T02:12:36.281Z,18.37
2018-04-23T02:15:02.354Z,19.10
2018-04-23T02:17:28.444Z,18.17
2018-04-23T02:19:55.260Z,19.67
2018-04-23T02:22:21.351Z,17.87
2018-04-23T02:24:47.479Z,17.80
2018-04-23T02:27:14.274Z,19.03
2018-04-23T02:29:40.352Z,20.17
2018-04-23T02:32:06.449Z,19.83
2018-04-23T02:34:32.538Z,17.67
2018-04-23T02:36:58.642Z,21.20
2018-04-23T02:39:24.730Z,18.20
2018-04-23T02:41:50.829Z,19.27
2018-04-23T02:44:16.937Z,18.20
2018-04-23T02:46:43.777Z,17.93
2018-04-23T02:49:09.884Z,19.47
2018-04-23T02:51:35.991Z,18.83
2018-04-23T02:54:02.083Z,20.17
2018-04-23T02:56:28.913Z,18.33
2018-04-23T02:58:55.001Z,19.80
2018-04-23T03:01:21.085Z,17.97
2018-04-23T03:03:47.905Z,20.17
2018-04-23T03:06:13.981Z,24.63
2018-04-23T03:08:40.073Z,21.30
2018-04-23T03:11:06.894Z,22.57
2018-04-23T03:13:32.998Z,21.70
2018-04-23T03:15:59.080Z,24.73
2018-04-23T03:18:25.178Z,29.87
2018-04-23T03:20:51.261Z,27.73
2018-04-23T03:23:17.345Z,24.17
2018-04-23T03:25:44.166Z,22.13
2018-04-23T03:28:10.264Z,23.10
2018-04-23T03:30:36.352Z,23.00
2018-04-23T03:33:02.441Z,23.07
2018-04-23T03:35:28.525Z,25.37
2018-04-23T03:37:54.606Z,24.83
2018-04-23T03:40:20.699Z,25.50
2018-04-23T03:42:46.792Z,29.10
2018-04-23T03:45:12.880Z,26.43
2018-04-23T03:47:39.706Z,26.27
2018-04-23T03:50:05.799Z,25.40
2018-04-23T03:52:31.901Z,24.87
2018-04-23T03:54:57.989Z,28.20
2018-04-23T03:57:24.069Z,24.03
2018-04-23T03:59:50.161Z,24.57
2018-04-23T04:02:16.988Z,25.13
2018-04-23T04:04:43.082Z,23.17
2018-04-23T04:07:09.178Z,25.50
2018-04-23T04:09:35.301Z,24.00
2018-04-23T04:12:20.206Z,21.83
2018-04-23T04:15:05.151Z,21.13
2018-04-23T04:20:27.144Z,20.40
2018-04-23T04:22:53.222Z,18.87
2018-04-23T04:25:19.300Z,18.67
2018-04-23T04:27:45.380Z,18.30
2018-04-23T04:30:11.454Z,18.43
2018-04-23T04:32:37.545Z,16.87
2018-04-23T04:35:03.629Z,16.63
2018-04-23T04:37:29.718Z,27.37
2018-04-23T04:39:55.810Z,20.80
2018-04-23T04:42:21.899Z,19.03
2018-04-23T04:44:48.721Z,15.57
2018-04-23T04:47:14.816Z,15.13
2018-04-23T04:49:40.910Z,17.70
2018-04-23T04:52:06.994Z,14.67
2018-04-23T04:54:33.079Z,14.40
2018-04-23T04:56:59.157Z,15.00
2018-04-23T04:59:25.981Z,14.37
2018-04-23T05:01:52.062Z,14.13
2018-04-23T05:04:18.159Z,13.13
2018-04-23T05:06:44.986Z,12.77
2018-04-23T05:09:11.077Z,12.93
2018-04-23T05:11:37.149Z,13.20
2018-04-23T05:14:03.981Z,12.17
2018-04-23T05:16:30.097Z,13.43
2018-04-23T05:18:56.971Z,14.07
2018-04-23T05:21:23.065Z,13.13
2018-04-23T05:23:49.194Z,14.03
2018-04-23T05:26:15.254Z,12.37
2018-04-23T05:28:41.346Z,16.67
2018-04-23T05:31:07.438Z,12.67
2018-04-23T05:33:33.522Z,12.80
2018-04-23T05:36:00.367Z,12.80
2018-04-23T05:38:27.189Z,12.10
2018-04-23T05:40:53.437Z,11.57
2018-04-23T05:43:20.261Z,9.48
2018-04-23T05:45:47.097Z,11.75
2018-04-23T05:48:13.177Z,10.52
2018-04-23T05:50:39.269Z,9.95
2018-04-23T05:53:26.907Z,8.73
2018-04-23T05:55:52.981Z,9.50
2018-04-23T06:01:34.715Z,7.82
2018-04-23T06:04:08.069Z,12.40
2018-04-23T06:06:44.750Z,10.20
2018-04-23T06:12:14.933Z,11.25
2018-04-23T06:14:41.741Z,11.88
2018-04-23T06:17:07.812Z,8.63
2018-04-23T06:19:39.292Z,10.82
2018-04-23T06:22:06.074Z,8.23
2018-04-23T06:24:32.153Z,12.75
2018-04-23T06:26:58.221Z,12.20
2018-04-23T06:29:27.551Z,10.13
2018-04-23T06:31:54.377Z,11.73
2018-04-23T06:34:20.466Z,9.73
2018-04-23T06:36:47.350Z,10.73
2018-04-23T06:39:13.426Z,10.05
2018-04-23T06:41:39.517Z,12.70
2018-04-23T06:44:06.325Z,9.65
2018-04-23T06:46:32.398Z,8.50
2018-04-23T06:48:58.818Z,12.13
2018-04-23T06:51:25.629Z,8.90
2018-04-23T06:53:52.258Z,11.23
2018-04-23T06:56:18.341Z,9.95
2018-04-23T06:58:48.641Z,9.13
2018-04-23T07:01:15.461Z,10.20
2018-04-23T07:03:45.782Z,11.35
2018-04-23T07:06:11.855Z,7.62
2018-04-23T07:08:38.664Z,9.77
2018-04-23T07:11:04.739Z,11.07
2018-04-23T07:13:30.822Z,10.27
2018-04-23T07:15:56.890Z,10.73
2018-04-23T07:18:22.966Z,12.05
2018-04-23T07:20:49.030Z,11.35
2018-04-23T07:23:15.785Z,11.40
2018-04-23T07:25:41.849Z,6.62
2018-04-23T07:28:07.914Z,9.27
2018-04-23T07:30:33.997Z,12.23
2018-04-23T07:33:00.065Z,10.88
2018-04-23T07:35:26.150Z,8.90
2018-04-23T07:37:52.228Z,11.35
2018-04-23T07:40:18.297Z,10.90
2018-04-23T07:42:45.331Z,20.10
2018-04-23T07:45:11.418Z,15.43
2018-04-23T07:47:37.481Z,12.27
2018-04-23T07:50:03.554Z,14.85
2018-04-23T07:52:30.388Z,11.20
2018-04-23T07:54:57.226Z,11.70
2018-04-23T07:57:24.049Z,10.48
2018-04-23T07:59:50.165Z,13.18
2018-04-23T08:02:16.249Z,11.73
2018-04-23T08:04:42.334Z,19.40
2018-04-23T08:07:08.431Z,14.52
2018-04-23T08:09:34.530Z,14.50
2018-04-23T08:12:00.625Z,12.07
2018-04-23T08:14:27.441Z,10.35
2018-04-23T08:16:53.529Z,10.30
2018-04-23T08:19:19.605Z,13.55
2018-04-23T08:21:46.426Z,11.70
2018-04-23T08:24:12.509Z,15.18
2018-04-23T08:26:38.610Z,12.50
2018-04-23T08:29:05.434Z,12.30
2018-04-23T08:31:31.522Z,11.23
2018-04-23T08:33:57.609Z,13.55
2018-04-23T08:36:24.973Z,16.20
2018-04-23T08:38:51.807Z,10.20
2018-04-23T08:41:18.634Z,13.65
2018-04-23T08:43:44.749Z,10.65
2018-04-23T08:46:10.830Z,16.60
2018-04-23T08:48:36.928Z,11.45
2018-04-23T08:51:03.757Z,13.60
2018-04-23T08:53:29.866Z,17.58
2018-04-23T08:55:55.985Z,14.10
2018-04-23T08:58:22.054Z,11.15
2018-04-23T09:00:48.892Z,14.65
2018-04-23T09:03:15.721Z,12.55
2018-04-23T09:05:41.801Z,14.43
2018-04-23T09:08:07.888Z,15.27
2018-04-23T09:10:34.724Z,11.63
2018-04-23T09:13:01.559Z,17.17
2018-04-23T09:15:27.650Z,12.90
2018-04-23T09:17:55.151Z,10.63
2018-04-23T09:20:21.986Z,14.65
2018-04-23T09:22:48.075Z,13.93
2018-04-23T09:25:14.164Z,11.52
2018-04-23T09:27:40.251Z,14.50
2018-04-23T09:30:06.345Z,15.38
2018-04-23T09:32:32.446Z,16.10
2018-04-23T09:34:58.533Z,13.27
2018-04-23T09:37:24.623Z,14.38
2018-04-23T09:39:50.701Z,12.65
2018-04-23T09:42:16.786Z,15.90
2018-04-23T09:44:42.927Z,16.77
2018-04-23T09:47:08.981Z,14.93
2018-04-23T09:49:35.817Z,14.68
2018-04-23T09:52:02.641Z,15.15
2018-04-23T09:54:28.762Z,18.55
2018-04-23T09:56:54.845Z,14.93
2018-04-23T09:59:20.930Z,17.45
2018-04-23T10:01:50.001Z,20.52
2018-04-23T10:04:19.950Z,13.68
2018-04-23T10:06:46.790Z,21.52
2018-04-23T10:09:13.637Z,14.23
2018-04-23T10:11:40.473Z,14.52
2018-04-23T10:14:06.555Z,14.57
2018-04-23T10:16:32.687Z,31.08
2018-04-23T10:18:58.746Z,19.25
2018-04-23T10:21:24.830Z,17.48
2018-04-23T10:23:50.905Z,14.13
2018-04-23T10:26:17.737Z,15.65
2018-04-23T10:28:43.823Z,14.40
2018-04-23T10:31:09.926Z,18.77
2018-04-23T10:33:36.014Z,15.38
2018-04-23T10:36:02.090Z,17.00
2018-04-23T10:38:28.179Z,16.42
2018-04-23T10:40:55.013Z,12.73
2018-04-23T10:43:21.110Z,17.10
2018-04-23T10:45:47.186Z,11.20
2018-04-23T10:48:13.997Z,14.40
2018-04-23T10:50:40.077Z,16.77
2018-04-23T10:53:06.176Z,15.00
2018-04-23T10:55:32.998Z,14.68
2018-04-23T10:57:59.083Z,16.70
2018-04-23T11:00:25.168Z,15.10
2018-04-23T11:02:51.993Z,13.10
2018-04-23T11:05:18.080Z,17.30
2018-04-23T11:07:44.169Z,12.15
2018-04-23T11:10:10.250Z,12.93
2018-04-23T11:12:36.361Z,15.18
2018-04-23T11:15:02.433Z,11.88
2018-04-23T11:17:29.253Z,16.50
2018-04-23T11:19:56.829Z,12.68
2018-04-23T11:22:23.650Z,12.13
2018-04-23T11:24:49.775Z,12.37
2018-04-23T11:27:15.827Z,9.55
2018-04-23T11:29:42.658Z,12.23
2018-04-23T11:32:08.733Z,10.50
2018-04-23T11:34:34.826Z,14.45
2018-04-23T11:37:01.642Z,11.77
2018-04-23T11:39:27.738Z,10.10
2018-04-23T11:41:53.834Z,12.13
2018-04-23T11:44:19.917Z,13.68
2018-04-23T11:46:45.998Z,13.13
2018-04-23T11:49:12.093Z,14.90
2018-04-23T11:51:38.932Z,10.88
2018-04-23T11:54:05.777Z,12.32
2018-04-23T11:56:32.605Z,14.73
2018-04-23T11:58:58.681Z,11.43
2018-04-23T12:01:24.778Z,13.77
2018-04-23T12:03:51.598Z,11.65
2018-04-23T12:06:17.690Z,11.93
2018-04-23T12:08:43.779Z,11.02
2018-04-23T12:11:09.878Z,14.90
2018-04-23T12:13:35.993Z,14.75
2018-04-23T12:16:02.060Z,10.93
2018-04-23T12:18:29.042Z,12.98
2018-04-23T12:20:55.133Z,13.52
2018-04-23T12:23:21.214Z,17.50
2018-04-23T12:25:48.057Z,17.08
2018-04-23T12:28:14.142Z,13.00
2018-04-23T12:30:40.276Z,9.00
2018-04-23T12:33:06.335Z,12.30
2018-04-23T12:35:32.416Z,11.95
2018-04-23T12:37:58.509Z,10.38
2018-04-23T12:40:25.337Z,10.70
2018-04-23T12:42:51.429Z,11.57
2018-04-23T12:45:17.518Z,11.32
2018-04-23T12:47:43.613Z,9.45
2018-04-23T12:50:09.690Z,11.35
2018-04-23T12:52:35.785Z,13.57
2018-04-23T12:55:02.610Z,10.32
2018-04-23T12:57:28.698Z,13.40
2018-04-23T12:59:55.631Z,13.40
2018-04-23T13:02:21.737Z,11.57
2018-04-23T13:04:47.822Z,15.18
2018-04-23T13:07:13.921Z,12.65
2018-04-23T13:09:40.010Z,13.77
2018-04-23T13:12:06.098Z,13.07
2018-04-23T13:14:32.190Z,13.20
2018-04-23T13:16:58.273Z,10.23
2018-04-23T13:19:25.107Z,12.00
2018-04-23T13:21:51.937Z,9.38
2018-04-23T13:24:29.398Z,15.00
2018-04-23T13:26:55.474Z,12.25
2018-04-23T13:29:22.313Z,11.73
2018-04-23T13:31:49.150Z,14.40
2018-04-23T13:34:15.253Z,14.27
2018-04-23T13:36:42.315Z,11.35
2018-04-23T13:39:09.170Z,13.35
2018-04-23T13:41:36.003Z,12.63
2018-04-23T13:44:02.088Z,12.63
2018-04-23T13:46:28.169Z,12.07
2018-04-23T13:48:54.994Z,13.88
2018-04-23T13:51:21.818Z,12.98
2018-04-23T13:53:47.901Z,15.23
2018-04-23T13:56:14.009Z,11.77
2018-04-23T13:58:40.845Z,15.05
2018-04-23T14:01:07.682Z,17.15
2018-04-23T14:03:33.766Z,16.35
2018-04-23T14:05:59.858Z,10.75
2018-04-23T14:08:26.491Z,14.60
2018-04-23T14:10:53.322Z,17.17
2018-04-23T14:13:20.158Z,17.98
2018-04-23T14:15:46.247Z,18.35
2018-04-23T14:18:12.334Z,15.07
2018-04-23T14:20:38.428Z,15.63
2018-04-23T14:23:04.518Z,15.85
2018-04-23T14:25:30.618Z,13.55
2018-04-23T14:27:56.704Z,13.05
2018-04-23T14:30:22.816Z,14.80
2018-04-23T14:32:48.898Z,16.80
2018-04-23T14:35:14.985Z,15.57
2018-04-23T14:37:41.829Z,12.37
2018-04-23T14:40:08.670Z,13.80
2018-04-23T14:42:34.765Z,13.15
2018-04-23T14:45:00.850Z,16.95
2018-04-23T14:47:26.943Z,15.43
2018-04-23T14:49:53.019Z,16.50
2018-04-23T14:52:19.100Z,16.25
2018-04-23T14:54:45.188Z,35.72
2018-04-23T14:57:11.277Z,22.90
2018-04-23T14:59:37.352Z,31.23
2018-04-23T15:02:03.433Z,100.97
2018-04-23T15:04:29.505Z,106.95
2018-04-23T15:06:55.598Z,31.40
2018-04-23T15:09:21.685Z,25.33
2018-04-23T15:11:48.497Z,25.10
2018-04-23T15:14:14.565Z,28.83
2018-04-23T15:16:41.382Z,33.73
2018-04-23T15:19:07.465Z,31.93
2018-04-23T15:21:33.534Z,34.17
2018-04-23T15:24:00.190Z,34.13
2018-04-23T15:26:27.000Z,27.30
2018-04-23T15:28:53.566Z,27.07
2018-04-23T15:31:20.385Z,27.87
2018-04-23T15:33:46.445Z,30.83
2018-04-23T15:36:12.502Z,26.07
2018-04-23T15:38:38.582Z,30.23
2018-04-23T15:41:05.401Z,26.60
2018-04-23T15:43:31.478Z,34.20
2018-04-23T15:45:57.544Z,30.00
2018-04-23T15:48:23.607Z,28.50
2018-04-23T15:50:50.429Z,26.23
2018-04-23T15:53:16.505Z,32.67
2018-04-23T15:55:42.581Z,30.63
2018-04-23T15:58:08.653Z,32.23
2018-04-23T16:00:34.785Z,31.10
2018-04-23T16:03:00.854Z,32.87
2018-04-23T16:05:26.965Z,33.17
2018-04-23T16:07:53.042Z,29.70
2018-04-23T16:10:19.820Z,33.57
2018-04-23T16:12:45.894Z,33.13
2018-04-23T16:15:12.725Z,34.17
2018-04-23T16:17:38.796Z,36.63
2018-04-23T16:20:04.886Z,31.93
2018-04-23T16:22:31.701Z,33.53
2018-04-23T16:24:57.795Z,29.67
2018-04-23T16:27:30.669Z,36.07
2018-04-23T16:32:59.441Z,30.93
2018-04-23T16:35:26.269Z,35.63
2018-04-23T16:41:15.082Z,34.70
2018-04-23T16:44:05.781Z,40.63
2018-04-23T16:46:31.856Z,37.13
2018-04-23T16:49:01.509Z,34.53
2018-04-23T16:51:27.598Z,39.27
2018-04-23T16:53:54.561Z,42.97
2018-04-23T16:56:20.657Z,38.03
2018-04-23T16:59:01.242Z,43.83
2018-04-23T17:01:27.369Z,42.20
2018-04-23T17:03:53.448Z,36.57
2018-04-23T17:06:19.526Z,47.40
2018-04-23T17:08:45.602Z,40.53
2018-04-23T17:11:11.669Z,45.73
2018-04-23T17:13:37.745Z,38.63
2018-04-23T17:16:03.826Z,40.57
2018-04-23T17:18:36.276Z,44.63
2018-04-23T17:21:02.353Z,43.80
2018-04-23T17:23:28.439Z,33.20
2018-04-23T17:26:25.625Z,36.67
2018-04-23T17:28:52.490Z,35.87
2018-04-23T17:31:18.574Z,38.20
2018-04-23T17:33:44.666Z,36.93
2018-04-23T17:36:10.761Z,42.70
2018-04-23T17:38:36.839Z,47.73
2018-04-23T17:41:02.905Z,38.23
2018-04-23T17:43:28.997Z,40.60
2018-04-23T17:45:55.077Z,47.57
2018-04-23T17:48:21.185Z,43.50
2018-04-23T17:50:47.266Z,36.70
2018-04-23T17:53:13.359Z,36.37
2018-04-23T17:55:39.446Z,44.07
2018-04-23T17:58:06.274Z,37.83
2018-04-23T18:00:33.457Z,44.47
2018-04-23T18:02:59.549Z,34.87
2018-04-23T18:05:25.634Z,34.90
2018-04-23T18:07:51.726Z,44.60
2018-04-23T18:10:18.562Z,43.30
2018-04-23T18:12:45.399Z,38.37
2018-04-23T18:15:14.312Z,57.77
2018-04-23T18:20:59.078Z,61.73
2018-04-23T18:23:25.909Z,63.67
2018-04-23T18:26:06.173Z,46.67
2018-04-23T18:28:36.953Z,45.47
2018-04-23T18:31:03.050Z,57.60
2018-04-23T18:33:29.882Z,66.47
2018-04-23T18:35:56.721Z,57.70
2018-04-23T18:38:23.554Z,54.90
2018-04-23T18:40:49.654Z,50.20
2018-04-23T18:43:15.752Z,51.23
2018-04-23T18:45:43.940Z,63.43
2018-04-23T18:48:10.018Z,55.83
2018-04-23T18:50:37.496Z,57.40
2018-04-23T18:53:03.598Z,50.80
2018-04-23T18:55:30.428Z,55.60
2018-04-23T18:57:56.520Z,62.57
2018-04-23T19:00:22.604Z,72.50
2018-04-23T19:02:49.442Z,70.40
2018-04-23T19:05:16.283Z,79.27
2018-04-23T19:07:43.129Z,84.87
2018-04-23T19:10:09.973Z,86.10
2018-04-23T19:12:36.821Z,76.00
2018-04-23T19:15:03.657Z,80.53
2018-04-23T19:17:30.495Z,71.10
2018-04-23T19:19:57.326Z,68.07
2018-04-23T19:22:23.433Z,63.63
2018-04-23T19:24:49.515Z,70.37
2018-04-23T19:27:15.606Z,71.13
2018-04-23T19:29:41.688Z,74.30
2018-04-23T19:32:07.801Z,86.10
2018-04-23T19:34:33.901Z,82.43
2018-04-23T19:37:00.735Z,80.30
2018-04-23T19:39:26.837Z,79.93
2018-04-23T19:41:52.929Z,79.70
2018-04-23T19:44:19.067Z,91.53
2018-04-23T19:50:08.841Z,92.90
2018-04-23T19:52:34.960Z,86.30
2018-04-23T19:55:01.053Z,71.00
2018-04-23T19:57:27.141Z,99.03
2018-04-23T19:59:53.240Z,65.77
2018-04-23T20:02:19.325Z,83.07
2018-04-23T20:04:45.433Z,65.67
2018-04-23T20:07:11.538Z,68.13
2018-04-23T20:09:37.641Z,70.40
2018-04-23T20:12:03.729Z,71.50
2018-04-23T20:14:29.860Z,63.80
2018-04-23T20:16:55.927Z,69.00
2018-04-23T20:19:22.010Z,67.03
2018-04-23T20:21:48.078Z,64.73
2018-04-23T20:24:14.219Z,56.73
2018-04-23T20:26:44.113Z,48.87
2018-04-23T20:29:17.250Z,53.17
2018-04-23T20:32:00.994Z,49.30
2018-04-23T20:34:58.538Z,47.70
2018-04-23T20:37:24.622Z,48.17
2018-04-23T20:39:50.741Z,55.37
2018-04-23T20:42:17.568Z,60.53
2018-04-23T20:44:43.641Z,56.93
2018-04-23T20:47:28.355Z,63.77
2018-04-23T20:49:54.442Z,73.03
2018-04-23T20:52:20.539Z,61.17
2018-04-23T20:54:46.625Z,69.50
2018-04-23T20:57:12.719Z,81.07
2018-04-23T20:59:39.390Z,64.97
2018-04-23T21:02:05.485Z,66.67
2018-04-23T21:04:32.607Z,66.20
2018-04-23T21:06:58.698Z,67.10
2018-04-23T21:09:25.578Z,64.70
2018-04-23T21:11:52.970Z,61.70
2018-04-23T21:14:19.066Z,59.73
2018-04-23T21:16:45.168Z,54.70
2018-04-23T21:19:11.269Z,54.57
2018-04-23T21:21:37.366Z,61.20
2018-04-23T21:24:04.186Z,47.47
2018-04-23T21:26:30.281Z,53.17
2018-04-23T21:28:57.085Z,56.67
2018-04-23T21:31:23.902Z,51.90
2018-04-23T21:33:49.979Z,52.97
2018-04-23T21:36:16.056Z,55.83
2018-04-23T21:38:42.153Z,51.33
2018-04-23T21:41:08.958Z,51.23
2018-04-23T21:43:35.044Z,59.97
2018-04-23T21:46:01.111Z,53.90
2018-04-23T21:48:27.194Z,59.07
2018-04-23T21:50:53.261Z,61.57
2018-04-23T21:53:19.428Z,57.20
2018-04-23T21:55:45.518Z,60.87
2018-04-23T21:58:11.619Z,65.87
2018-04-23T22:00:37.698Z,51.63
2018-04-23T22:03:04.541Z,66.60
2018-04-23T22:05:30.633Z,60.57
2018-04-23T22:08:02.977Z,61.00
2018-04-23T22:10:30.824Z,57.93
2018-04-23T22:13:03.615Z,58.30
2018-04-23T22:15:29.637Z,52.27
2018-04-23T22:17:55.729Z,55.20
2018-04-23T22:20:22.557Z,53.13
2018-04-23T22:22:50.752Z,53.47
2018-04-23T22:25:17.588Z,50.73
2018-04-23T22:27:45.059Z,49.87
2018-04-23T22:30:11.165Z,51.33
2018-04-23T22:32:37.981Z,47.50
2018-04-23T22:35:04.146Z,46.37
2018-04-23T22:37:30.198Z,54.50
2018-04-23T22:39:56.289Z,53.20
2018-04-23T22:42:23.125Z,47.83
2018-04-23T22:44:49.233Z,46.13
2018-04-23T22:47:15.316Z,48.90
2018-04-23T22:49:41.418Z,53.47
2018-04-23T22:52:08.249Z,58.30
2018-04-23T22:54:35.086Z,59.07
2018-04-23T22:57:01.185Z,55.90
2018-04-23T22:59:27.275Z,51.87
2018-04-23T23:01:53.361Z,68.80
2018-04-23T23:04:19.446Z,72.60
2018-04-23T23:06:45.543Z,61.53
2018-04-23T23:09:11.621Z,69.13
2018-04-23T23:11:37.709Z,74.63
2018-04-23T23:14:05.154Z,67.67
2018-04-23T23:16:31.234Z,82.23
2018-04-23T23:18:57.326Z,78.67
2018-04-23T23:21:23.418Z,75.33
2018-04-23T23:23:50.246Z,80.63
2018-04-23T23:26:17.107Z,71.93
2018-04-23T23:28:43.197Z,87.40
2018-04-23T23:31:09.281Z,81.80
2018-04-23T23:33:35.374Z,103.17
2018-04-23T23:36:02.214Z,86.77
2018-04-23T23:38:29.053Z,85.87
2018-04-23T23:40:55.881Z,87.93
2018-04-23T23:43:21.970Z,98.13
2018-04-23T23:45:48.053Z,84.40
2018-04-23T23:48:14.877Z,85.43
2018-04-23T23:50:40.974Z,80.43
2018-04-23T23:53:07.094Z,93.77
2018-04-23T23:55:33.922Z,91.47
2018-04-23T23:58:00.020Z,112.57
